Time;durP1;ratioP1;P1;durP2;ratioP2;P2;SDS_P1;SDS_P2;PMS_P1;PMS_P2;Temp;Humidity;BMP_temperature;BMP_pressure;BME280_temperature;BME280_humidity;BME280_pressure;Samples;Min_cycle;Max_cycle;Signal;HPM_P1;HPM_P2
2022/07/24 00:02:18;;;;;;;14.77;11.90;;;18.10;99.90;;;;;;5088540;28;20043;-68
2022/07/24 00:04:50;;;;;;;18.83;13.20;;;18.10;99.90;;;;;;5090954;28;20035;-69
2022/07/24 00:07:16;;;;;;;15.55;12.68;;;18.10;99.90;;;;;;5091536;28;20071;-69
2022/07/24 00:09:44;;;;;;;13.93;11.70;;;18.10;99.90;;;;;;5083478;28;20040;-66
2022/07/24 00:12:11;;;;;;;15.98;11.77;;;18.10;99.90;;;;;;5071224;28;20097;-69
2022/07/24 00:14:37;;;;;;;14.52;12.98;;;18.10;99.90;;;;;;5070695;28;20044;-67
2022/07/24 00:17:04;;;;;;;14.18;11.73;;;18.10;99.90;;;;;;5071442;28;20530;-69
2022/07/24 00:19:31;;;;;;;15.70;12.65;;;18.10;99.90;;;;;;5053235;28;20051;-68
2022/07/24 00:21:59;;;;;;;13.77;12.10;;;18.10;99.90;;;;;;5071009;28;20040;-66
2022/07/24 00:24:26;;;;;;;15.32;12.43;;;18.10;99.90;;;;;;5070754;28;20141;-69
2022/07/24 00:26:53;;;;;;;15.65;10.73;;;18.10;99.90;;;;;;5052891;28;20389;-67
2022/07/24 00:29:20;;;;;;;16.95;12.38;;;18.10;99.90;;;;;;5071303;28;20040;-67
2022/07/24 00:31:47;;;;;;;20.02;12.77;;;18.10;99.90;;;;;;5076071;28;20047;-67
2022/07/24 00:34:13;;;;;;;16.02;13.40;;;18.00;99.90;;;;;;5073156;28;20035;-66
2022/07/24 00:36:43;;;;;;;17.52;13.05;;;17.90;99.90;;;;;;5087709;28;20044;-67
2022/07/24 00:39:10;;;;;;;14.80;11.93;;;17.90;99.90;;;;;;5091230;28;20043;-67
2022/07/24 00:41:38;;;;;;;14.02;12.52;;;17.80;99.90;;;;;;5091694;28;20046;-66
2022/07/24 00:44:13;;;;;;;17.75;11.95;;;17.80;99.90;;;;;;5091157;28;20056;-66
2022/07/24 00:46:42;;;;;;;14.43;12.43;;;17.80;99.90;;;;;;5091633;28;20036;-67
2022/07/24 00:49:12;;;;;;;13.85;12.05;;;17.80;99.90;;;;;;5091388;28;20042;-66
2022/07/24 00:51:46;;;;;;;13.07;10.15;;;17.80;99.90;;;;;;5091261;28;20073;-66
2022/07/24 00:54:14;;;;;;;15.45;11.98;;;17.80;99.90;;;;;;5090808;28;20051;-67
2022/07/24 00:56:44;;;;;;;13.35;11.00;;;17.70;99.90;;;;;;5090954;28;20101;-67
2022/07/24 00:59:11;;;;;;;17.20;12.68;;;17.80;99.90;;;;;;5091212;28;20043;-67
2022/07/24 01:01:38;;;;;;;13.13;11.77;;;17.70;99.90;;;;;;5093743;28;20036;-67
2022/07/24 01:04:05;;;;;;;12.40;11.10;;;17.80;99.90;;;;;;5093011;28;20686;-66
2022/07/24 01:06:32;;;;;;;11.90;10.52;;;17.70;99.90;;;;;;5094675;28;20522;-69
2022/07/24 01:08:59;;;;;;;13.88;11.45;;;17.80;99.90;;;;;;5093123;28;20051;-67
2022/07/24 01:11:28;;;;;;;17.08;12.20;;;17.80;99.90;;;;;;5073683;28;20071;-66
2022/07/24 01:13:55;;;;;;;14.45;11.73;;;17.80;99.90;;;;;;5074386;28;20455;-67
2022/07/24 01:16:22;;;;;;;13.75;12.30;;;17.80;99.90;;;;;;5073285;28;20794;-67
2022/07/24 01:18:49;;;;;;;12.48;11.18;;;17.70;99.90;;;;;;5074112;28;20067;-68
2022/07/24 01:21:16;;;;;;;12.63;11.23;;;17.70;99.90;;;;;;5074369;28;20731;-68
2022/07/24 01:23:45;;;;;;;13.43;11.30;;;17.70;99.90;;;;;;5073476;28;20044;-68
2022/07/24 01:26:12;;;;;;;14.30;11.68;;;17.70;99.90;;;;;;5074204;28;20036;-69
2022/07/24 01:28:39;;;;;;;13.77;11.95;;;17.70;99.90;;;;;;5055431;28;20078;-68
2022/07/24 01:31:06;;;;;;;13.90;10.82;;;17.60;99.90;;;;;;5056308;28;20622;-69
2022/07/24 01:33:32;;;;;;;20.98;12.68;;;17.60;99.90;;;;;;5074345;28;20032;-68
2022/07/24 01:35:59;;;;;;;15.50;11.65;;;17.50;99.90;;;;;;5073725;28;20043;-68
2022/07/24 01:38:26;;;;;;;20.63;12.25;;;17.50;99.90;;;;;;5073763;28;20923;-68
2022/07/24 01:40:53;;;;;;;16.90;12.63;;;17.50;99.90;;;;;;5073978;28;20036;-68
2022/07/24 01:43:20;;;;;;;14.38;12.88;;;17.40;99.90;;;;;;5073614;28;20117;-68
2022/07/24 01:45:47;;;;;;;17.85;12.70;;;17.40;99.90;;;;;;5073490;28;20051;-68
2022/07/24 01:48:14;;;;;;;17.05;14.20;;;17.40;99.90;;;;;;5074179;28;20112;-68
2022/07/24 01:50:40;;;;;;;18.80;15.23;;;17.40;99.90;;;;;;5074356;28;20040;-68
2022/07/24 01:53:07;;;;;;;22.02;13.68;;;17.40;99.90;;;;;;5055048;28;20040;-68
2022/07/24 01:55:34;;;;;;;19.23;14.43;;;17.30;99.90;;;;;;5073886;28;20051;-68
2022/07/24 01:58:01;;;;;;;20.23;13.70;;;17.30;99.90;;;;;;5073060;28;20916;-69
2022/07/24 02:00:27;;;;;;;16.25;12.73;;;17.30;99.90;;;;;;5073692;28;20044;-68
2022/07/24 02:02:54;;;;;;;17.13;14.18;;;17.30;99.90;;;;;;5056461;28;20043;-68
2022/07/24 02:05:21;;;;;;;16.50;13.88;;;17.30;99.90;;;;;;5073879;28;20039;-68
2022/07/24 02:07:56;;;;;;;16.90;13.95;;;17.30;99.90;;;;;;5093747;28;20685;-67
2022/07/24 02:10:24;;;;;;;15.52;12.10;;;17.30;99.90;;;;;;5093625;28;20043;-68
2022/07/24 02:12:51;;;;;;;15.45;12.02;;;17.30;99.90;;;;;;5090662;28;20051;-68
2022/07/24 02:15:18;;;;;;;14.40;12.90;;;17.30;99.90;;;;;;5072676;28;20688;-68
2022/07/24 02:17:49;;;;;;;13.80;12.35;;;17.30;99.90;;;;;;5073623;28;20060;-69
2022/07/24 02:20:17;;;;;;;20.80;12.75;;;17.30;99.90;;;;;;5073033;28;20087;-68
2022/07/24 02:22:44;;;;;;;15.75;12.07;;;17.30;99.90;;;;;;5071971;28;20044;-67
2022/07/24 02:25:11;;;;;;;18.75;12.95;;;17.30;99.90;;;;;;5072812;28;20592;-68
2022/07/24 02:27:39;;;;;;;15.02;12.48;;;17.30;99.90;;;;;;5071750;28;20110;-68
2022/07/24 02:30:10;;;;;;;17.60;13.25;;;17.30;99.90;;;;;;5073593;28;20044;-68
2022/07/24 02:32:37;;;;;;;16.48;13.02;;;17.30;99.90;;;;;;5072944;28;20856;-68
2022/07/24 02:35:05;;;;;;;15.50;13.55;;;17.30;99.90;;;;;;5073362;28;20046;-67
2022/07/24 02:37:39;;;;;;;18.73;12.77;;;17.30;99.90;;;;;;5089855;28;20039;-66
2022/07/24 02:40:08;;;;;;;16.52;13.40;;;17.30;99.90;;;;;;5093432;28;20043;-66
2022/07/24 02:42:36;;;;;;;17.63;12.82;;;17.30;99.90;;;;;;5092988;28;20104;-68
2022/07/24 02:45:04;;;;;;;17.13;13.95;;;17.30;99.90;;;;;;5075114;28;20656;-66
2022/07/24 02:47:31;;;;;;;14.70;13.20;;;17.30;99.90;;;;;;5093193;28;21021;-67
2022/07/24 02:49:58;;;;;;;19.05;12.88;;;17.30;99.90;;;;;;5093078;28;20055;-67
2022/07/24 02:52:24;;;;;;;16.73;14.27;;;17.30;99.90;;;;;;5091631;28;20039;-67
2022/07/24 02:54:52;;;;;;;17.45;14.23;;;17.20;99.90;;;;;;5092823;28;20787;-67
2022/07/24 02:57:19;;;;;;;16.95;13.68;;;17.10;99.90;;;;;;5093964;28;20100;-66
2022/07/24 02:59:49;;;;;;;15.80;13.40;;;17.10;99.90;;;;;;5093468;28;20047;-66
2022/07/24 03:02:16;;;;;;;20.52;14.63;;;17.00;99.90;;;;;;5059740;28;20067;-66
2022/07/24 03:04:43;;;;;;;16.40;14.70;;;17.00;99.90;;;;;;5092748;28;20039;-66
2022/07/24 03:07:10;;;;;;;18.15;14.05;;;16.90;99.90;;;;;;5092539;28;20046;-66
2022/07/24 03:09:37;;;;;;;16.33;14.60;;;16.90;99.90;;;;;;5094606;28;20070;-67
2022/07/24 03:12:04;;;;;;;15.98;14.32;;;16.90;99.90;;;;;;5092938;28;20142;-66
2022/07/24 03:14:31;;;;;;;18.73;13.18;;;16.90;99.90;;;;;;5077012;28;20541;-66
2022/07/24 03:16:58;;;;;;;14.88;12.40;;;16.90;99.90;;;;;;5073457;28;20051;-67
2022/07/24 03:19:25;;;;;;;19.23;13.25;;;16.90;99.90;;;;;;5073301;28;20127;-66
2022/07/24 03:21:51;;;;;;;21.60;14.55;;;16.90;99.90;;;;;;5073242;28;20048;-67
2022/07/24 03:24:18;;;;;;;14.73;13.20;;;16.90;99.90;;;;;;5072396;28;20048;-68
2022/07/24 03:26:45;;;;;;;18.58;13.65;;;16.90;99.90;;;;;;5073356;28;20093;-67
2022/07/24 03:29:12;;;;;;;16.02;14.05;;;16.90;99.90;;;;;;5072991;28;20048;-67
2022/07/24 03:31:39;;;;;;;15.35;13.45;;;16.90;99.90;;;;;;5055732;28;20860;-67
2022/07/24 03:34:06;;;;;;;16.42;13.68;;;16.90;99.90;;;;;;5072974;28;20036;-67
2022/07/24 03:36:33;;;;;;;14.40;12.48;;;16.90;99.90;;;;;;5081983;28;20039;-67
2022/07/24 03:39:00;;;;;;;15.65;12.45;;;16.90;99.90;;;;;;5093883;28;20104;-67
2022/07/24 03:41:27;;;;;;;14.77;13.18;;;16.90;99.90;;;;;;5093417;28;20035;-67
2022/07/24 03:43:54;;;;;;;19.02;14.25;;;16.90;99.90;;;;;;5091663;28;20079;-67
2022/07/24 03:46:21;;;;;;;;;;;16.90;99.90;;;;;;5093570;28;20043;-67
2022/07/24 03:48:48;;;;;;;18.52;14.32;;;16.90;99.90;;;;;;5093804;28;19923;-68
2022/07/24 03:51:15;;;;;;;20.63;15.00;;;16.80;99.90;;;;;;5091989;28;20499;-67
2022/07/24 03:53:45;;;;;;;18.88;14.02;;;16.80;99.90;;;;;;5092640;28;20124;-67
2022/07/24 03:56:13;;;;;;;17.77;13.82;;;16.80;99.90;;;;;;5092002;28;20048;-67
2022/07/24 03:58:39;;;;;;;19.33;13.90;;;16.80;99.90;;;;;;5092723;28;20047;-68
2022/07/24 04:01:07;;;;;;;14.63;13.18;;;16.80;99.90;;;;;;5074749;28;20047;-67
2022/07/24 04:03:35;;;;;;;19.98;13.65;;;16.80;99.90;;;;;;5092130;28;20036;-67
2022/07/24 04:06:04;;;;;;;17.75;13.80;;;16.80;99.90;;;;;;5092084;28;20044;-68
2022/07/24 04:08:31;;;;;;;14.40;12.90;;;16.80;99.90;;;;;;5073743;28;20495;-67
2022/07/24 04:10:59;;;;;;;16.50;14.55;;;16.80;99.90;;;;;;5074171;28;20279;-67
2022/07/24 04:13:28;;;;;;;14.80;13.30;;;16.80;99.90;;;;;;5072464;28;20036;-67
2022/07/24 04:15:56;;;;;;;18.65;14.98;;;16.80;99.90;;;;;;5054542;28;20047;-68
2022/07/24 04:18:23;;;;;;;15.88;14.02;;;16.80;99.90;;;;;;5072384;28;20044;-68
2022/07/24 04:20:50;;;;;;;16.55;13.38;;;16.80;99.90;;;;;;5072388;28;20040;-68
2022/07/24 04:23:18;;;;;;;15.80;13.32;;;16.80;99.90;;;;;;5072650;28;20037;-68
2022/07/24 04:25:45;;;;;;;17.48;14.55;;;16.80;99.90;;;;;;5054175;28;20134;-68
2022/07/24 04:28:13;;;;;;;21.88;15.00;;;16.80;99.90;;;;;;5072074;28;20048;-68
2022/07/24 04:30:40;;;;;;;19.25;14.60;;;16.80;99.90;;;;;;5073041;28;20059;-68
2022/07/24 04:33:06;;;;;;;16.42;14.73;;;16.80;99.90;;;;;;5088413;28;20047;-68
2022/07/24 04:35:33;;;;;;;17.88;14.20;;;16.80;99.90;;;;;;5094245;28;20047;-68
2022/07/24 04:38:00;;;;;;;16.95;15.23;;;16.80;99.90;;;;;;5095020;28;20052;-68
2022/07/24 04:40:27;;;;;;;21.10;15.82;;;16.90;99.90;;;;;;5097012;28;20981;-68
2022/07/24 04:42:54;;;;;;;16.05;14.45;;;16.90;99.90;;;;;;5096000;28;20039;-68
2022/07/24 04:45:21;;;;;;;15.68;13.65;;;16.90;99.90;;;;;;5095082;28;20050;-67
2022/07/24 04:47:48;;;;;;;16.73;14.90;;;16.90;99.90;;;;;;5095525;28;20043;-67
2022/07/24 04:50:15;;;;;;;17.95;14.38;;;17.00;99.90;;;;;;5096326;28;20090;-67
2022/07/24 04:52:42;;;;;;;17.33;12.63;;;17.00;99.90;;;;;;5096335;28;20051;-67
2022/07/24 04:55:10;;;;;;;16.63;14.85;;;17.00;99.90;;;;;;5094928;28;20047;-67
2022/07/24 04:57:36;;;;;;;15.75;14.10;;;17.10;99.90;;;;;;5096655;28;20069;-67
2022/07/24 05:00:06;;;;;;;15.10;13.50;;;17.20;99.90;;;;;;5096754;28;20138;-67
2022/07/24 05:02:34;;;;;;;17.10;15.30;;;17.20;99.90;;;;;;5077852;28;20169;-67
2022/07/24 05:05:01;;;;;;;18.23;15.85;;;17.30;99.90;;;;;;5096347;28;20154;-67
2022/07/24 05:07:27;;;;;;;18.20;15.40;;;17.40;99.90;;;;;;5093865;28;20043;-60
2022/07/24 05:09:57;;;;;;;16.35;14.75;;;17.40;99.90;;;;;;5086317;28;20657;-58
2022/07/24 05:12:25;;;;;;;16.20;14.63;;;17.50;99.90;;;;;;5074406;28;20055;-61
2022/07/24 05:14:52;;;;;;;16.42;14.68;;;17.50;99.90;;;;;;5073939;28;20048;-62
2022/07/24 05:17:19;;;;;;;18.75;14.88;;;17.60;99.90;;;;;;5074201;28;20058;-61
2022/07/24 05:19:45;;;;;;;;;;;17.70;99.90;;;;;;5056974;28;20214;-61
2022/07/24 05:22:12;;;;;;;15.55;13.93;;;17.70;99.90;;;;;;5073085;28;19969;-61
2022/07/24 05:24:40;;;;;;;17.23;15.45;;;17.70;99.90;;;;;;5071727;28;20062;-61
2022/07/24 05:27:07;;;;;;;17.27;15.57;;;17.80;99.90;;;;;;5075143;28;20708;-62
2022/07/24 05:29:39;;;;;;;24.17;14.05;;;17.90;99.90;;;;;;5072760;28;20755;-61
2022/07/24 05:32:08;;;;;;;19.42;15.43;;;17.90;99.90;;;;;;5083443;28;20073;-61
2022/07/24 05:34:35;;;;;;;20.25;15.90;;;18.00;99.90;;;;;;5094758;28;20514;-61
2022/07/24 05:37:07;;;;;;;17.17;15.48;;;18.10;99.90;;;;;;5091461;28;20052;-60
2022/07/24 05:39:34;;;;;;;15.75;14.10;;;18.20;99.90;;;;;;5094553;28;20039;-60
2022/07/24 05:42:02;;;;;;;17.10;14.95;;;18.30;99.90;;;;;;5094233;28;20047;-60
2022/07/24 05:44:28;;;;;;;18.70;16.70;;;18.30;99.90;;;;;;5094314;28;20051;-61
2022/07/24 05:46:55;;;;;;;16.45;14.70;;;18.40;99.90;;;;;;5093257;28;20043;-59
2022/07/24 05:49:22;;;;;;;24.00;14.32;;;18.50;99.90;;;;;;5094566;28;20527;-60
2022/07/24 05:51:51;;;;;;;16.52;13.93;;;18.50;99.90;;;;;;5075958;28;20035;-54
2022/07/24 05:54:18;;;;;;;17.58;15.30;;;18.60;99.90;;;;;;5093585;28;20040;-54
2022/07/24 05:56:45;;;;;;;18.73;14.80;;;18.70;99.90;;;;;;5093689;28;20040;-55
2022/07/24 05:59:12;;;;;;;17.83;14.98;;;18.70;99.90;;;;;;5093151;28;20043;-53
2022/07/24 06:01:39;;;;;;;16.42;14.73;;;18.80;99.90;;;;;;5093744;28;20044;-54
2022/07/24 06:04:06;;;;;;;17.45;14.70;;;18.90;99.90;;;;;;5093703;28;20124;-54
2022/07/24 06:06:33;;;;;;;17.38;15.57;;;18.90;99.90;;;;;;5094237;28;20040;-53
2022/07/24 06:08:59;;;;;;;21.85;15.07;;;19.10;99.90;;;;;;5090976;28;20783;-52
2022/07/24 06:11:26;;;;;;;17.02;14.35;;;19.10;99.90;;;;;;5072962;28;20914;-53
2022/07/24 06:13:55;;;;;;;17.25;15.05;;;19.20;99.90;;;;;;5073703;28;20454;-51
2022/07/24 06:16:23;;;;;;;19.55;14.82;;;19.40;99.90;;;;;;5073972;28;20039;-52
2022/07/24 06:18:50;;;;;;;18.70;15.20;;;19.40;99.90;;;;;;5074541;28;20115;-53
2022/07/24 06:21:16;;;;;;;17.48;15.68;;;19.50;99.90;;;;;;5074354;28;20130;-52
2022/07/24 06:23:43;;;;;;;17.60;15.02;;;19.60;99.90;;;;;;5073969;28;20040;-53
2022/07/24 06:26:10;;;;;;;17.48;14.60;;;19.70;99.90;;;;;;5056084;28;20043;-53
2022/07/24 06:28:37;;;;;;;18.17;15.63;;;19.80;99.90;;;;;;5073984;28;20046;-51
2022/07/24 06:31:04;;;;;;;17.45;14.52;;;19.90;99.90;;;;;;5074628;28;20043;-61
2022/07/24 06:33:31;;;;;;;14.77;13.20;;;20.00;99.90;;;;;;5093827;28;20654;-55
2022/07/24 06:35:59;;;;;;;16.65;14.77;;;20.10;99.90;;;;;;5092541;28;20039;-54
2022/07/24 06:38:26;;;;;;;21.05;16.10;;;20.20;99.90;;;;;;5092180;28;20967;-57
2022/07/24 06:40:53;;;;;;;20.08;16.50;;;20.30;99.90;;;;;;5094377;28;20044;-61
2022/07/24 06:43:20;;;;;;;20.50;15.77;;;20.40;99.90;;;;;;5094009;28;20044;-60
2022/07/24 06:45:47;;;;;;;18.65;15.48;;;20.50;99.90;;;;;;5094072;28;20040;-62
2022/07/24 06:48:14;;;;;;;17.10;14.95;;;20.60;99.90;;;;;;5094652;28;20088;-61
2022/07/24 06:50:41;;;;;;;18.98;16.95;;;20.70;99.90;;;;;;5093420;28;20051;-61
2022/07/24 06:53:08;;;;;;;21.05;16.27;;;20.80;99.90;;;;;;5094141;28;20051;-62
2022/07/24 06:55:35;;;;;;;19.58;15.55;;;20.80;99.90;;;;;;5092459;28;20065;-61
2022/07/24 06:58:02;;;;;;;22.02;16.60;;;21.00;99.90;;;;;;5092965;28;20047;-62
2022/07/24 07:00:29;;;;;;;17.77;15.07;;;21.10;99.90;;;;;;5093712;28;20050;-61
2022/07/24 07:02:55;;;;;;;17.20;15.40;;;21.10;99.90;;;;;;5074953;28;20055;-61
2022/07/24 07:05:23;;;;;;;17.63;15.27;;;21.30;99.90;;;;;;5094163;28;20047;-62
2022/07/24 07:07:50;;;;;;;19.48;16.08;;;21.40;99.90;;;;;;5093275;28;20046;-62
2022/07/24 07:10:17;;;;;;;18.63;15.32;;;21.50;99.90;;;;;;5092165;28;20050;-63
2022/07/24 07:12:44;;;;;;;18.30;16.30;;;21.60;99.90;;;;;;5085963;28;20760;-62
2022/07/24 07:15:12;;;;;;;19.60;17.52;;;21.70;99.90;;;;;;5073075;28;20048;-63
2022/07/24 07:17:40;;;;;;;18.63;15.50;;;21.80;99.90;;;;;;5073505;28;20052;-61
2022/07/24 07:20:09;;;;;;;21.73;14.98;;;21.90;99.90;;;;;;5071905;28;20051;-61
2022/07/24 07:22:36;;;;;;;17.65;15.52;;;22.00;99.90;;;;;;5072644;28;20036;-61
2022/07/24 07:25:04;;;;;;;21.33;15.65;;;22.10;99.90;;;;;;5071549;28;20122;-63
2022/07/24 07:27:31;;;;;;;18.50;16.60;;;22.20;99.90;;;;;;5073667;28;20109;-63
2022/07/24 07:29:58;;;;;;;16.15;14.48;;;22.30;99.90;;;;;;5073014;28;20078;-63
2022/07/24 07:32:25;;;;;;;16.73;14.95;;;22.40;99.90;;;;;;5080751;28;20100;-64
2022/07/24 07:34:52;;;;;;;21.02;15.35;;;22.50;99.90;;;;;;5072870;28;20074;-62
2022/07/24 07:37:20;;;;;;;23.10;16.42;;;22.70;99.90;;;;;;5074578;28;20100;-65
2022/07/24 07:39:47;;;;;;;18.33;15.85;;;22.70;99.90;;;;;;5055157;28;20040;-67
2022/07/24 07:42:14;;;;;;;17.05;15.23;;;22.70;99.90;;;;;;5054837;28;20127;-67
2022/07/24 07:44:41;;;;;;;19.25;15.52;;;22.80;99.90;;;;;;5072719;28;20336;-67
2022/07/24 07:47:08;;;;;;;21.00;16.83;;;22.80;99.90;;;;;;5055081;28;20040;-68
2022/07/24 07:49:35;;;;;;;16.25;14.43;;;22.90;99.90;;;;;;5073212;28;20503;-67
2022/07/24 07:52:03;;;;;;;17.38;15.32;;;22.90;99.90;;;;;;5072965;28;20074;-64
2022/07/24 07:54:30;;;;;;;16.40;14.65;;;23.10;99.90;;;;;;5072659;28;20741;-67
2022/07/24 07:56:57;;;;;;;15.55;13.82;;;23.20;99.90;;;;;;5073140;28;20040;-68
2022/07/24 07:59:23;;;;;;;15.80;13.77;;;23.30;99.90;;;;;;5070732;28;20147;-67
2022/07/24 08:01:50;;;;;;;16.55;14.43;;;23.30;99.90;;;;;;5071093;28;20044;-68
2022/07/24 08:04:17;;;;;;;18.92;15.32;;;23.50;99.90;;;;;;5071974;28;20109;-71
2022/07/24 08:06:44;;;;;;;21.80;14.77;;;23.70;99.90;;;;;;5072282;28;20044;-67
2022/07/24 08:09:13;;;;;;;16.33;14.63;;;23.80;99.90;;;;;;5076658;28;20096;-68
2022/07/24 08:11:40;;;;;;;16.92;15.13;;;23.90;99.90;;;;;;5091462;28;20032;-67
2022/07/24 08:14:07;;;;;;;18.65;14.00;;;24.00;99.90;;;;;;5092227;28;20070;-68
2022/07/24 08:16:33;;;;;;;16.02;14.38;;;24.10;99.90;;;;;;5092603;28;20539;-67
2022/07/24 08:19:00;;;;;;;17.48;15.85;;;24.50;99.90;;;;;;5093125;28;20043;-67
2022/07/24 08:21:28;;;;;;;16.42;14.70;;;24.90;99.90;;;;;;5073948;28;20047;-68
2022/07/24 08:23:54;;;;;;;15.07;13.48;;;25.20;99.90;;;;;;5092926;28;20167;-67
2022/07/24 08:26:21;;;;;;;17.25;12.98;;;25.60;99.90;;;;;;5093057;28;20054;-67
2022/07/24 08:28:48;;;;;;;14.68;12.77;;;25.90;99.90;;;;;;5092883;28;20051;-69
2022/07/24 08:31:15;;;;;;;18.23;14.63;;;26.30;99.90;;;;;;5091733;28;20043;-64
2022/07/24 08:33:42;;;;;;;16.30;14.60;;;26.60;99.90;;;;;;5071512;28;20375;-64
2022/07/24 08:36:09;;;;;;;14.43;12.98;;;26.80;99.90;;;;;;5073716;28;20492;-64
2022/07/24 08:38:36;;;;;;;17.98;13.48;;;26.90;99.90;;;;;;5072411;28;20054;-64
2022/07/24 08:41:03;;;;;;;16.48;13.75;;;27.10;99.90;;;;;;5072887;28;20051;-64
2022/07/24 08:43:30;;;;;;;14.23;12.68;;;27.40;99.90;;;;;;5072125;28;20055;-64
2022/07/24 08:46:00;;;;;;;18.80;13.48;;;27.50;99.90;;;;;;5071794;28;20040;-66
2022/07/24 08:48:28;;;;;;;14.23;12.50;;;27.50;99.90;;;;;;5072609;28;20048;-64
2022/07/24 08:50:58;;;;;;;18.15;13.40;;;27.60;99.90;;;;;;5071892;28;20051;-65
2022/07/24 08:53:25;;;;;;;14.38;12.93;;;27.70;99.90;;;;;;5070949;28;20048;-64
2022/07/24 08:55:51;;;;;;;13.38;11.98;;;27.80;99.90;;;;;;5072438;28;20044;-64
2022/07/24 08:58:18;;;;;;;12.85;11.65;;;27.90;99.90;;;;;;5070632;28;20044;-64
2022/07/24 09:00:45;;;;;;;17.67;12.68;;;28.20;99.90;;;;;;5071565;28;20033;-64
2022/07/24 09:03:12;;;;;;;15.95;13.25;;;28.40;99.90;;;;;;5071490;28;20050;-65
2022/07/24 09:05:56;;;;;;;16.00;12.50;;;28.50;99.90;;;;;;5072189;28;20044;-64
2022/07/24 09:08:23;;;;;;;13.65;12.25;;;28.70;99.90;;;;;;5072039;28;20040;-64
2022/07/24 09:11:03;;;;;;;13.50;12.20;;;29.00;99.90;;;;;;5085741;28;20809;-64
2022/07/24 09:16:26;;;;;;;14.18;12.57;;;29.40;99.90;;;;;;5091311;28;20755;-63
2022/07/24 09:19:07;;;;;;;14.80;12.40;;;29.50;99.90;;;;;;5092008;28;20189;-64
2022/07/24 09:21:40;;;;;;;14.40;11.52;;;29.50;99.80;;;;;;5092472;28;20051;-64
2022/07/24 09:24:35;;;;;;;13.93;12.60;;;29.50;98.10;;;;;;5094822;28;20039;-64
2022/07/24 09:27:03;;;;;;;16.15;12.80;;;29.40;99.50;;;;;;5065105;28;20058;-64
2022/07/24 09:29:32;;;;;;;13.25;11.90;;;29.20;99.90;;;;;;5096078;28;20040;-64
2022/07/24 09:32:01;;;;;;;13.27;11.88;;;29.20;99.90;;;;;;5088214;28;20040;-64
2022/07/24 09:34:36;;;;;;;13.48;12.10;;;29.30;99.90;;;;;;5075946;28;20051;-64
2022/07/24 09:37:07;;;;;;;13.93;11.70;;;29.50;99.90;;;;;;5077473;28;20115;-63
2022/07/24 09:39:36;;;;;;;16.92;13.73;;;29.60;99.90;;;;;;5075303;28;20118;-63
2022/07/24 09:42:06;;;;;;;13.27;11.45;;;29.70;99.90;;;;;;5075187;28;20665;-63
2022/07/24 09:44:33;;;;;;;13.65;12.18;;;29.70;99.90;;;;;;5075545;28;20056;-63
2022/07/24 09:47:06;;;;;;;15.63;11.70;;;29.70;99.90;;;;;;5075129;28;20078;-63
2022/07/24 09:49:34;;;;;;;16.05;12.13;;;29.70;99.90;;;;;;5075986;28;20090;-63
2022/07/24 09:52:14;;;;;;;12.40;11.05;;;29.80;99.90;;;;;;5075583;28;20055;-63
2022/07/24 09:54:49;;;;;;;12.02;10.85;;;29.80;99.90;;;;;;5074680;28;20409;-64
2022/07/24 09:57:29;;;;;;;14.63;12.27;;;29.90;99.90;;;;;;5074933;28;20465;-63
2022/07/24 10:00:03;;;;;;;13.25;11.80;;;30.10;99.90;;;;;;5075030;28;20063;-64
2022/07/24 10:02:32;;;;;;;15.48;11.48;;;30.00;96.10;;;;;;5074852;28;20155;-64
2022/07/24 10:05:01;;;;;;;14.02;12.63;;;30.00;99.90;;;;;;5072370;28;20717;-64
2022/07/24 10:07:29;;;;;;;12.00;10.80;;;29.80;95.30;;;;;;5074879;28;20052;-63
2022/07/24 10:09:59;;;;;;;16.92;12.20;;;29.70;99.50;;;;;;5084387;28;20043;-64
2022/07/24 10:12:29;;;;;;;13.95;12.60;;;29.80;99.90;;;;;;5093664;28;20530;-63
2022/07/24 10:14:58;;;;;;;13.38;12.02;;;29.90;99.90;;;;;;5093162;28;20044;-64
2022/07/24 10:18:05;;;;;;;13.73;12.20;;;30.00;99.90;;;;;;5094830;28;20054;-64
2022/07/24 10:20:40;;;;;;;15.52;11.60;;;30.20;99.90;;;;;;5095819;28;20040;-63
2022/07/24 10:23:21;;;;;;;14.25;12.75;;;30.30;99.90;;;;;;5094339;28;20120;-64
2022/07/24 10:25:54;;;;;;;12.68;11.48;;;30.50;99.90;;;;;;5095329;28;20044;-64
2022/07/24 10:28:41;;;;;;;12.20;10.98;;;30.50;97.70;;;;;;5094736;28;20051;-64
2022/07/24 10:31:10;;;;;;;;;;;30.60;91.50;;;;;;5076650;28;20047;-63
2022/07/24 10:33:39;;;;;;;13.52;12.05;;;30.40;93.00;;;;;;5073455;28;20314;-64
2022/07/24 10:36:15;;;;;;;13.15;11.35;;;30.10;93.70;;;;;;5074448;28;20093;-64
2022/07/24 10:38:51;;;;;;;13.83;12.40;;;29.80;96.70;;;;;;5074393;28;20044;-64
2022/07/24 10:41:25;;;;;;;13.70;10.73;;;29.70;99.90;;;;;;5074097;28;20063;-64
2022/07/24 10:44:17;;;;;;;13.32;11.07;;;29.90;99.90;;;;;;5072269;28;20083;-64
2022/07/24 10:47:01;;;;;;;15.95;11.95;;;30.10;99.20;;;;;;5074928;28;20036;-64
2022/07/24 10:49:40;;;;;;;13.25;11.82;;;30.40;95.80;;;;;;5093662;28;20043;-64
2022/07/24 10:52:11;;;;;;;16.50;12.18;;;30.60;97.10;;;;;;5056541;28;20113;-64
2022/07/24 10:54:39;;;;;;;13.52;11.75;;;30.70;98.20;;;;;;5071995;28;20044;-64
2022/07/24 10:57:06;;;;;;;14.48;12.13;;;30.80;93.40;;;;;;5086810;28;20043;-64
2022/07/24 10:59:41;;;;;;;14.63;12.43;;;30.70;93.50;;;;;;5094892;28;20399;-64
2022/07/24 11:02:28;;;;;;;13.23;11.02;;;30.50;92.40;;;;;;5093923;28;20039;-67
2022/07/24 11:05:24;;;;;;;11.95;10.75;;;30.20;92.00;;;;;;5090757;28;20893;-65
2022/07/24 11:08:16;;;;;;;15.65;11.80;;;30.00;92.30;;;;;;5072946;28;20113;-64
2022/07/24 11:10:53;;;;;;;11.98;10.27;;;29.90;92.20;;;;;;5090198;28;20043;-64
2022/07/24 11:13:32;;;;;;;11.73;10.20;;;30.00;92.70;;;;;;5084670;28;20047;-64
2022/07/24 11:16:17;;;;;;;10.40;9.40;;;30.10;92.50;;;;;;5093082;28;20047;-64
2022/07/24 11:18:54;;;;;;;16.65;9.95;;;30.30;85.70;;;;;;5093307;28;20035;-64
2022/07/24 11:21:38;;;;;;;12.18;10.02;;;30.50;87.10;;;;;;5094277;28;20052;-64
2022/07/24 11:24:17;;;;;;;11.75;9.57;;;30.70;83.90;;;;;;5093285;28;20075;-64
2022/07/24 11:26:47;;;;;;;10.63;9.57;;;30.80;83.10;;;;;;5094053;28;20039;-64
2022/07/24 11:29:34;;;;;;;11.90;9.32;;;30.90;79.10;;;;;;5093631;28;20043;-64
2022/07/24 11:32:17;;;;;;;11.00;9.43;;;31.10;75.00;;;;;;5093363;28;20741;-64
2022/07/24 11:34:47;;;;;;;11.48;9.15;;;31.10;75.20;;;;;;5093659;28;20036;-64
2022/07/24 11:37:15;;;;;;;9.57;8.55;;;31.20;74.40;;;;;;5077584;28;20051;-64
2022/07/24 11:39:44;;;;;;;11.43;9.60;;;31.10;70.00;;;;;;5073772;28;20043;-64
2022/07/24 11:42:13;;;;;;;9.90;8.90;;;31.10;68.40;;;;;;5073109;28;20048;-64
2022/07/24 11:44:48;;;;;;;10.10;9.00;;;31.30;64.70;;;;;;5071000;28;20660;-64
2022/07/24 11:47:19;;;;;;;12.52;9.43;;;31.30;62.90;;;;;;5072595;28;20051;-64
2022/07/24 11:49:54;;;;;;;8.63;7.82;;;31.40;66.50;;;;;;5072096;28;20043;-64
2022/07/24 11:52:30;;;;;;;9.35;8.27;;;31.40;61.90;;;;;;5073476;28;20535;-64
2022/07/24 11:55:00;;;;;;;7.60;6.75;;;31.50;58.90;;;;;;5072862;28;20071;-64
2022/07/24 11:57:32;;;;;;;8.05;7.10;;;31.40;56.80;;;;;;5073231;28;20044;-64
2022/07/24 12:00:25;;;;;;;8.50;7.70;;;31.50;55.40;;;;;;5070166;28;20217;-64
2022/07/24 12:03:00;;;;;;;8.73;7.90;;;31.60;58.40;;;;;;5070164;28;20097;-64
2022/07/24 12:05:29;;;;;;;7.97;6.70;;;31.70;57.90;;;;;;5070841;28;20040;-64
2022/07/24 12:07:58;;;;;;;17.90;8.73;;;31.70;52.70;;;;;;5070975;28;20040;-63
2022/07/24 12:10:26;;;;;;;8.40;7.60;;;31.70;52.60;;;;;;5083118;28;20047;-63
2022/07/24 12:12:54;;;;;;;7.10;6.32;;;31.80;55.80;;;;;;5071589;28;20058;-63
2022/07/24 12:15:27;;;;;;;7.68;6.75;;;31.90;52.30;;;;;;5089555;28;20051;-63
2022/07/24 12:17:58;;;;;;;8.60;7.43;;;32.00;51.70;;;;;;5092559;28;20047;-63
2022/07/24 12:20:30;;;;;;;15.82;7.13;;;32.00;53.70;;;;;;5093019;28;20564;-63
2022/07/24 12:23:00;;;;;;;8.15;7.35;;;32.00;54.30;;;;;;5092542;28;20044;-63
2022/07/24 12:25:28;;;;;;;12.38;7.38;;;32.00;53.90;;;;;;5093302;28;20036;-63
2022/07/24 12:28:17;;;;;;;14.25;8.88;;;32.00;53.70;;;;;;5092665;28;20106;-63
2022/07/24 12:30:52;;;;;;;10.57;6.95;;;31.90;53.50;;;;;;5074869;28;20083;-63
2022/07/24 12:33:22;;;;;;;8.55;7.25;;;31.90;53.80;;;;;;5091971;28;20509;-63
2022/07/24 12:35:59;;;;;;;8.57;7.68;;;31.90;55.70;;;;;;5070176;28;20044;-63
2022/07/24 12:38:27;;;;;;;8.63;7.82;;;32.00;54.60;;;;;;5071485;28;20683;-62
2022/07/24 12:41:07;;;;;;;7.53;6.82;;;32.00;53.90;;;;;;5070162;28;20096;-63
2022/07/24 12:44:06;;;;;;;10.98;6.90;;;32.10;53.90;;;;;;5070842;28;20055;-63
2022/07/24 12:46:35;;;;;;;7.90;7.15;;;32.30;53.20;;;;;;5070371;28;20982;-63